sensor_id;sensor_type;location;lat;lon;timestamp;P1;durP1;ratioP1;P2;durP2;ratioP2
36351;SDS011;22382;44.768;17.206;2023-04-03T00:01:15;4.55;;;2.63;;
36351;SDS011;22382;44.768;17.206;2023-04-03T00:03:43;4.30;;;2.85;;
36351;SDS011;22382;44.768;17.206;2023-04-03T00:06:10;3.85;;;2.65;;
36351;SDS011;22382;44.768;17.206;2023-04-03T00:08:39;2.92;;;2.08;;
36351;SDS011;22382;44.768;17.206;2023-04-03T00:11:07;2.88;;;2.20;;
36351;SDS011;22382;44.768;17.206;2023-04-03T00:13:35;4.50;;;2.65;;
36351;SDS011;22382;44.768;17.206;2023-04-03T00:16:03;4.80;;;2.65;;
36351;SDS011;22382;44.768;17.206;2023-04-03T00:18:30;3.42;;;2.42;;
36351;SDS011;22382;44.768;17.206;2023-04-03T00:20:58;3.10;;;2.40;;
36351;SDS011;22382;44.768;17.206;2023-04-03T00:23:25;4.05;;;2.72;;
36351;SDS011;22382;44.768;17.206;2023-04-03T00:25:52;3.60;;;2.38;;
36351;SDS011;22382;44.768;17.206;2023-04-03T00:28:19;3.40;;;2.47;;
36351;SDS011;22382;44.768;17.206;2023-04-03T00:30:48;4.40;;;3.13;;
36351;SDS011;22382;44.768;17.206;2023-04-03T00:33:16;5.00;;;2.65;;
36351;SDS011;22382;44.768;17.206;2023-04-03T00:35:43;5.32;;;3.05;;
36351;SDS011;22382;44.768;17.206;2023-04-03T00:38:11;4.68;;;2.80;;
36351;SDS011;22382;44.768;17.206;2023-04-03T00:40:39;3.78;;;2.70;;
36351;SDS011;22382;44.768;17.206;2023-04-03T00:43:11;4.13;;;2.90;;
36351;SDS011;22382;44.768;17.206;2023-04-03T00:45:42;5.07;;;2.78;;
36351;SDS011;22382;44.768;17.206;2023-04-03T00:48:16;4.70;;;3.20;;
36351;SDS011;22382;44.768;17.206;2023-04-03T00:50:46;4.80;;;3.28;;
36351;SDS011;22382;44.768;17.206;2023-04-03T00:53:16;3.92;;;3.13;;
36351;SDS011;22382;44.768;17.206;2023-04-03T00:55:48;4.38;;;3.80;;
36351;SDS011;22382;44.768;17.206;2023-04-03T00:58:17;5.05;;;3.50;;
36351;SDS011;22382;44.768;17.206;2023-04-03T01:00:50;5.07;;;3.75;;
36351;SDS011;22382;44.768;17.206;2023-04-03T01:03:24;8.13;;;4.10;;
36351;SDS011;22382;44.768;17.206;2023-04-03T01:05:51;5.60;;;3.83;;
36351;SDS011;22382;44.768;17.206;2023-04-03T01:08:18;4.82;;;3.72;;
36351;SDS011;22382;44.768;17.206;2023-04-03T01:10:46;5.65;;;4.03;;
36351;SDS011;22382;44.768;17.206;2023-04-03T01:13:21;5.05;;;3.78;;
36351;SDS011;22382;44.768;17.206;2023-04-03T01:15:54;5.80;;;3.97;;
36351;SDS011;22382;44.768;17.206;2023-04-03T01:18:22;6.40;;;4.18;;
36351;SDS011;22382;44.768;17.206;2023-04-03T01:24:36;5.75;;;3.88;;
36351;SDS011;22382;44.768;17.206;2023-04-03T01:26:34;6.68;;;4.30;;
36351;SDS011;22382;44.768;17.206;2023-04-03T01:29:02;6.72;;;4.60;;
36351;SDS011;22382;44.768;17.206;2023-04-03T01:34:17;8.52;;;5.10;;
36351;SDS011;22382;44.768;17.206;2023-04-03T01:36:45;8.48;;;5.13;;
36351;SDS011;22382;44.768;17.206;2023-04-03T01:39:12;7.65;;;5.22;;
36351;SDS011;22382;44.768;17.206;2023-04-03T01:41:39;10.45;;;5.30;;
36351;SDS011;22382;44.768;17.206;2023-04-03T01:44:06;8.00;;;5.10;;
36351;SDS011;22382;44.768;17.206;2023-04-03T01:46:34;7.70;;;5.00;;
36351;SDS011;22382;44.768;17.206;2023-04-03T01:49:01;4.72;;;3.70;;
36351;SDS011;22382;44.768;17.206;2023-04-03T01:51:29;6.38;;;4.47;;
36351;SDS011;22382;44.768;17.206;2023-04-03T01:53:56;7.55;;;4.50;;
36351;SDS011;22382;44.768;17.206;2023-04-03T01:56:24;5.15;;;3.80;;
36351;SDS011;22382;44.768;17.206;2023-04-03T01:58:51;6.22;;;4.15;;
36351;SDS011;22382;44.768;17.206;2023-04-03T02:01:18;6.45;;;4.50;;
36351;SDS011;22382;44.768;17.206;2023-04-03T02:03:46;5.50;;;4.20;;
36351;SDS011;22382;44.768;17.206;2023-04-03T02:06:13;6.35;;;4.45;;
36351;SDS011;22382;44.768;17.206;2023-04-03T02:08:40;7.38;;;4.40;;
36351;SDS011;22382;44.768;17.206;2023-04-03T02:11:08;6.80;;;3.83;;
36351;SDS011;22382;44.768;17.206;2023-04-03T02:13:35;5.10;;;3.80;;
36351;SDS011;22382;44.768;17.206;2023-04-03T02:16:09;7.55;;;4.50;;
36351;SDS011;22382;44.768;17.206;2023-04-03T02:18:37;5.05;;;4.18;;
36351;SDS011;22382;44.768;17.206;2023-04-03T02:21:05;7.35;;;4.30;;
36351;SDS011;22382;44.768;17.206;2023-04-03T02:23:32;7.15;;;4.30;;
36351;SDS011;22382;44.768;17.206;2023-04-03T02:26:03;5.72;;;4.35;;
36351;SDS011;22382;44.768;17.206;2023-04-03T02:28:35;6.97;;;4.22;;
36351;SDS011;22382;44.768;17.206;2023-04-03T02:31:03;4.95;;;3.83;;
36351;SDS011;22382;44.768;17.206;2023-04-03T02:33:30;5.28;;;3.55;;
36351;SDS011;22382;44.768;17.206;2023-04-03T02:35:58;7.07;;;4.32;;
36351;SDS011;22382;44.768;17.206;2023-04-03T02:38:25;5.93;;;3.97;;
36351;SDS011;22382;44.768;17.206;2023-04-03T02:40:53;5.70;;;4.25;;
36351;SDS011;22382;44.768;17.206;2023-04-03T02:43:20;5.47;;;3.63;;
36351;SDS011;22382;44.768;17.206;2023-04-03T02:45:47;4.38;;;3.42;;
36351;SDS011;22382;44.768;17.206;2023-04-03T02:48:14;5.10;;;3.70;;
36351;SDS011;22382;44.768;17.206;2023-04-03T02:50:43;5.55;;;3.95;;
36351;SDS011;22382;44.768;17.206;2023-04-03T02:53:10;6.47;;;4.05;;
36351;SDS011;22382;44.768;17.206;2023-04-03T02:55:37;6.35;;;3.83;;
36351;SDS011;22382;44.768;17.206;2023-04-03T02:58:04;5.80;;;3.78;;
36351;SDS011;22382;44.768;17.206;2023-04-03T03:00:35;5.55;;;3.58;;
36351;SDS011;22382;44.768;17.206;2023-04-03T03:03:02;5.20;;;3.70;;
36351;SDS011;22382;44.768;17.206;2023-04-03T03:05:30;4.60;;;3.40;;
36351;SDS011;22382;44.768;17.206;2023-04-03T03:07:57;4.90;;;3.42;;
36351;SDS011;22382;44.768;17.206;2023-04-03T03:10:25;6.68;;;4.35;;
36351;SDS011;22382;44.768;17.206;2023-04-03T03:12:52;6.20;;;3.67;;
36351;SDS011;22382;44.768;17.206;2023-04-03T03:15:19;4.93;;;3.67;;
36351;SDS011;22382;44.768;17.206;2023-04-03T03:17:46;4.25;;;3.17;;
36351;SDS011;22382;44.768;17.206;2023-04-03T03:20:13;4.95;;;3.67;;
36351;SDS011;22382;44.768;17.206;2023-04-03T03:22:41;5.53;;;4.22;;
36351;SDS011;22382;44.768;17.206;2023-04-03T03:25:08;6.78;;;3.90;;
36351;SDS011;22382;44.768;17.206;2023-04-03T03:27:36;5.38;;;3.50;;
36351;SDS011;22382;44.768;17.206;2023-04-03T03:30:03;5.82;;;3.70;;
36351;SDS011;22382;44.768;17.206;2023-04-03T03:32:32;5.85;;;3.20;;
36351;SDS011;22382;44.768;17.206;2023-04-03T03:34:59;4.32;;;3.25;;
36351;SDS011;22382;44.768;17.206;2023-04-03T03:37:26;5.00;;;3.30;;
36351;SDS011;22382;44.768;17.206;2023-04-03T03:39:54;5.70;;;3.58;;
36351;SDS011;22382;44.768;17.206;2023-04-03T03:42:21;5.03;;;3.42;;
36351;SDS011;22382;44.768;17.206;2023-04-03T03:44:48;5.45;;;3.97;;
36351;SDS011;22382;44.768;17.206;2023-04-03T03:47:15;4.72;;;3.47;;
36351;SDS011;22382;44.768;17.206;2023-04-03T03:49:43;5.93;;;4.25;;
36351;SDS011;22382;44.768;17.206;2023-04-03T03:52:10;5.65;;;3.63;;
36351;SDS011;22382;44.768;17.206;2023-04-03T03:54:37;5.93;;;3.65;;
36351;SDS011;22382;44.768;17.206;2023-04-03T03:57:04;4.82;;;4.00;;
36351;SDS011;22382;44.768;17.206;2023-04-03T03:59:32;4.80;;;3.90;;
36351;SDS011;22382;44.768;17.206;2023-04-03T04:01:59;8.00;;;4.10;;
36351;SDS011;22382;44.768;17.206;2023-04-03T04:04:26;8.80;;;3.80;;
36351;SDS011;22382;44.768;17.206;2023-04-03T04:06:53;6.32;;;3.97;;
36351;SDS011;22382;44.768;17.206;2023-04-03T04:09:20;4.90;;;3.67;;
36351;SDS011;22382;44.768;17.206;2023-04-03T04:11:48;5.75;;;3.50;;
36351;SDS011;22382;44.768;17.206;2023-04-03T04:14:15;4.90;;;3.22;;
36351;SDS011;22382;44.768;17.206;2023-04-03T04:16:42;3.95;;;3.25;;
36351;SDS011;22382;44.768;17.206;2023-04-03T04:19:09;6.97;;;3.85;;
36351;SDS011;22382;44.768;17.206;2023-04-03T04:21:37;5.68;;;3.60;;
36351;SDS011;22382;44.768;17.206;2023-04-03T04:24:05;5.82;;;3.63;;
36351;SDS011;22382;44.768;17.206;2023-04-03T04:26:35;6.07;;;3.55;;
36351;SDS011;22382;44.768;17.206;2023-04-03T04:29:02;5.55;;;3.80;;
36351;SDS011;22382;44.768;17.206;2023-04-03T04:31:29;8.93;;;3.90;;
36351;SDS011;22382;44.768;17.206;2023-04-03T04:33:56;5.25;;;3.70;;
36351;SDS011;22382;44.768;17.206;2023-04-03T04:36:24;6.13;;;3.25;;
36351;SDS011;22382;44.768;17.206;2023-04-03T04:38:51;10.05;;;4.75;;
36351;SDS011;22382;44.768;17.206;2023-04-03T04:41:21;5.40;;;3.80;;
36351;SDS011;22382;44.768;17.206;2023-04-03T04:43:49;6.05;;;3.95;;
36351;SDS011;22382;44.768;17.206;2023-04-03T04:46:18;7.13;;;4.65;;
36351;SDS011;22382;44.768;17.206;2023-04-03T04:48:45;6.28;;;4.40;;
36351;SDS011;22382;44.768;17.206;2023-04-03T04:51:12;7.43;;;4.18;;
36351;SDS011;22382;44.768;17.206;2023-04-03T04:53:48;10.98;;;4.97;;
36351;SDS011;22382;44.768;17.206;2023-04-03T04:56:32;6.85;;;4.13;;
36351;SDS011;22382;44.768;17.206;2023-04-03T04:59:00;6.50;;;4.10;;
36351;SDS011;22382;44.768;17.206;2023-04-03T05:01:28;5.30;;;4.05;;
36351;SDS011;22382;44.768;17.206;2023-04-03T05:03:55;8.40;;;4.22;;
36351;SDS011;22382;44.768;17.206;2023-04-03T05:06:22;6.40;;;3.75;;
36351;SDS011;22382;44.768;17.206;2023-04-03T05:08:49;6.60;;;3.95;;
36351;SDS011;22382;44.768;17.206;2023-04-03T05:11:16;5.90;;;4.45;;
36351;SDS011;22382;44.768;17.206;2023-04-03T05:13:43;5.45;;;4.30;;
36351;SDS011;22382;44.768;17.206;2023-04-03T05:16:10;4.40;;;3.65;;
36351;SDS011;22382;44.768;17.206;2023-04-03T05:18:37;5.78;;;3.80;;
36351;SDS011;22382;44.768;17.206;2023-04-03T05:21:04;7.53;;;4.22;;
36351;SDS011;22382;44.768;17.206;2023-04-03T05:23:31;6.47;;;4.28;;
36351;SDS011;22382;44.768;17.206;2023-04-03T05:25:59;6.28;;;4.70;;
36351;SDS011;22382;44.768;17.206;2023-04-03T05:28:26;7.68;;;4.60;;
36351;SDS011;22382;44.768;17.206;2023-04-03T05:30:54;7.28;;;4.40;;
36351;SDS011;22382;44.768;17.206;2023-04-03T05:33:42;6.78;;;3.97;;
36351;SDS011;22382;44.768;17.206;2023-04-03T05:36:09;9.73;;;4.80;;
36351;SDS011;22382;44.768;17.206;2023-04-03T05:38:37;5.95;;;4.47;;
36351;SDS011;22382;44.768;17.206;2023-04-03T05:41:04;6.68;;;4.45;;
36351;SDS011;22382;44.768;17.206;2023-04-03T05:43:32;5.50;;;4.18;;
36351;SDS011;22382;44.768;17.206;2023-04-03T05:46:00;7.20;;;4.63;;
36351;SDS011;22382;44.768;17.206;2023-04-03T05:48:28;5.80;;;4.50;;
36351;SDS011;22382;44.768;17.206;2023-04-03T05:50:55;5.43;;;4.28;;
36351;SDS011;22382;44.768;17.206;2023-04-03T05:53:23;6.22;;;4.68;;
36351;SDS011;22382;44.768;17.206;2023-04-03T05:55:54;5.65;;;4.28;;
36351;SDS011;22382;44.768;17.206;2023-04-03T05:58:21;7.55;;;4.18;;
36351;SDS011;22382;44.768;17.206;2023-04-03T06:00:48;5.10;;;3.97;;
36351;SDS011;22382;44.768;17.206;2023-04-03T06:03:15;6.32;;;4.60;;
36351;SDS011;22382;44.768;17.206;2023-04-03T06:05:43;6.88;;;4.18;;
36351;SDS011;22382;44.768;17.206;2023-04-03T06:08:10;7.15;;;4.43;;
36351;SDS011;22382;44.768;17.206;2023-04-03T06:10:38;5.88;;;4.13;;
36351;SDS011;22382;44.768;17.206;2023-04-03T06:13:06;5.15;;;4.15;;
36351;SDS011;22382;44.768;17.206;2023-04-03T06:15:33;7.88;;;4.63;;
36351;SDS011;22382;44.768;17.206;2023-04-03T06:18:00;7.03;;;4.75;;
36351;SDS011;22382;44.768;17.206;2023-04-03T06:20:27;7.63;;;4.47;;
36351;SDS011;22382;44.768;17.206;2023-04-03T06:22:54;6.78;;;4.75;;
36351;SDS011;22382;44.768;17.206;2023-04-03T06:25:22;9.23;;;5.93;;
36351;SDS011;22382;44.768;17.206;2023-04-03T06:27:49;14.63;;;9.38;;
36351;SDS011;22382;44.768;17.206;2023-04-03T06:30:16;8.90;;;5.65;;
36351;SDS011;22382;44.768;17.206;2023-04-03T06:32:43;14.35;;;8.55;;
36351;SDS011;22382;44.768;17.206;2023-04-03T06:35:10;10.55;;;6.38;;
36351;SDS011;22382;44.768;17.206;2023-04-03T06:37:37;11.02;;;6.63;;
36351;SDS011;22382;44.768;17.206;2023-04-03T06:40:05;14.35;;;8.88;;
36351;SDS011;22382;44.768;17.206;2023-04-03T06:42:33;18.17;;;7.97;;
36351;SDS011;22382;44.768;17.206;2023-04-03T06:45:00;10.60;;;4.97;;
36351;SDS011;22382;44.768;17.206;2023-04-03T06:47:27;9.10;;;4.60;;
36351;SDS011;22382;44.768;17.206;2023-04-03T06:49:54;10.93;;;6.03;;
36351;SDS011;22382;44.768;17.206;2023-04-03T06:52:22;17.95;;;9.40;;
36351;SDS011;22382;44.768;17.206;2023-04-03T06:54:49;9.65;;;5.70;;
36351;SDS011;22382;44.768;17.206;2023-04-03T06:57:23;11.90;;;4.82;;
36351;SDS011;22382;44.768;17.206;2023-04-03T06:59:51;13.57;;;6.50;;
36351;SDS011;22382;44.768;17.206;2023-04-03T07:02:18;10.13;;;5.70;;
36351;SDS011;22382;44.768;17.206;2023-04-03T07:04:47;13.40;;;6.22;;
36351;SDS011;22382;44.768;17.206;2023-04-03T07:07:14;9.65;;;5.57;;
36351;SDS011;22382;44.768;17.206;2023-04-03T07:09:42;9.20;;;5.63;;
36351;SDS011;22382;44.768;17.206;2023-04-03T07:12:10;6.57;;;4.38;;
36351;SDS011;22382;44.768;17.206;2023-04-03T07:14:38;8.48;;;4.97;;
36351;SDS011;22382;44.768;17.206;2023-04-03T07:17:05;12.52;;;5.20;;
36351;SDS011;22382;44.768;17.206;2023-04-03T07:19:32;6.70;;;4.90;;
36351;SDS011;22382;44.768;17.206;2023-04-03T07:21:59;6.75;;;4.35;;
36351;SDS011;22382;44.768;17.206;2023-04-03T07:24:27;5.68;;;4.43;;
36351;SDS011;22382;44.768;17.206;2023-04-03T07:26:54;8.82;;;5.30;;
36351;SDS011;22382;44.768;17.206;2023-04-03T07:29:24;7.85;;;4.88;;
36351;SDS011;22382;44.768;17.206;2023-04-03T07:31:52;7.25;;;4.97;;
36351;SDS011;22382;44.768;17.206;2023-04-03T07:34:19;7.05;;;5.00;;
36351;SDS011;22382;44.768;17.206;2023-04-03T07:36:47;8.30;;;4.97;;
36351;SDS011;22382;44.768;17.206;2023-04-03T07:39:16;9.45;;;5.32;;
36351;SDS011;22382;44.768;17.206;2023-04-03T07:41:45;6.47;;;4.85;;
36351;SDS011;22382;44.768;17.206;2023-04-03T07:44:12;8.07;;;4.78;;
36351;SDS011;22382;44.768;17.206;2023-04-03T07:46:39;4.93;;;3.80;;
36351;SDS011;22382;44.768;17.206;2023-04-03T07:49:07;7.18;;;4.30;;
36351;SDS011;22382;44.768;17.206;2023-04-03T07:51:34;6.47;;;4.20;;
36351;SDS011;22382;44.768;17.206;2023-04-03T07:54:01;7.80;;;5.00;;
36351;SDS011;22382;44.768;17.206;2023-04-03T07:56:29;7.68;;;4.63;;
36351;SDS011;22382;44.768;17.206;2023-04-03T07:58:56;7.07;;;4.53;;
36351;SDS011;22382;44.768;17.206;2023-04-03T08:01:23;7.72;;;5.07;;
36351;SDS011;22382;44.768;17.206;2023-04-03T08:03:50;7.15;;;4.93;;
36351;SDS011;22382;44.768;17.206;2023-04-03T08:06:17;9.73;;;5.18;;
36351;SDS011;22382;44.768;17.206;2023-04-03T08:08:58;9.95;;;5.60;;
36351;SDS011;22382;44.768;17.206;2023-04-03T08:11:25;7.28;;;4.70;;
36351;SDS011;22382;44.768;17.206;2023-04-03T08:13:53;8.38;;;4.93;;
36351;SDS011;22382;44.768;17.206;2023-04-03T08:16:20;10.25;;;5.65;;
36351;SDS011;22382;44.768;17.206;2023-04-03T08:18:50;6.40;;;4.93;;
36351;SDS011;22382;44.768;17.206;2023-04-03T08:21:17;6.82;;;4.55;;
36351;SDS011;22382;44.768;17.206;2023-04-03T08:23:44;7.63;;;5.50;;
36351;SDS011;22382;44.768;17.206;2023-04-03T08:26:17;7.18;;;4.75;;
36351;SDS011;22382;44.768;17.206;2023-04-03T08:28:47;5.75;;;4.20;;
36351;SDS011;22382;44.768;17.206;2023-04-03T08:31:16;6.78;;;5.13;;
36351;SDS011;22382;44.768;17.206;2023-04-03T08:33:45;5.60;;;4.38;;
36351;SDS011;22382;44.768;17.206;2023-04-03T08:36:17;5.43;;;4.00;;
36351;SDS011;22382;44.768;17.206;2023-04-03T08:38:50;10.30;;;6.35;;
36351;SDS011;22382;44.768;17.206;2023-04-03T08:41:37;8.93;;;3.88;;
36351;SDS011;22382;44.768;17.206;2023-04-03T08:46:54;6.90;;;4.25;;
36351;SDS011;22382;44.768;17.206;2023-04-03T08:52:18;8.23;;;5.18;;
36351;SDS011;22382;44.768;17.206;2023-04-03T08:55:03;6.38;;;4.65;;
36351;SDS011;22382;44.768;17.206;2023-04-03T08:57:43;7.13;;;4.13;;
36351;SDS011;22382;44.768;17.206;2023-04-03T09:02:51;8.40;;;5.10;;
36351;SDS011;22382;44.768;17.206;2023-04-03T09:05:35;6.15;;;4.22;;
36351;SDS011;22382;44.768;17.206;2023-04-03T09:10:57;7.57;;;4.03;;
36351;SDS011;22382;44.768;17.206;2023-04-03T09:13:54;7.50;;;4.50;;
36351;SDS011;22382;44.768;17.206;2023-04-03T09:19:03;6.75;;;4.35;;
36351;SDS011;22382;44.768;17.206;2023-04-03T09:21:39;7.22;;;4.38;;
36351;SDS011;22382;44.768;17.206;2023-04-03T09:24:10;6.47;;;4.43;;
36351;SDS011;22382;44.768;17.206;2023-04-03T09:26:48;14.73;;;5.60;;
36351;SDS011;22382;44.768;17.206;2023-04-03T09:29:29;8.55;;;4.47;;
36351;SDS011;22382;44.768;17.206;2023-04-03T09:31:58;7.15;;;4.80;;
36351;SDS011;22382;44.768;17.206;2023-04-03T09:34:31;6.88;;;4.60;;
36351;SDS011;22382;44.768;17.206;2023-04-03T09:37:03;6.70;;;4.07;;
36351;SDS011;22382;44.768;17.206;2023-04-03T09:39:51;6.10;;;4.20;;
36351;SDS011;22382;44.768;17.206;2023-04-03T09:42:24;6.15;;;4.38;;
36351;SDS011;22382;44.768;17.206;2023-04-03T09:44:56;13.48;;;8.32;;
36351;SDS011;22382;44.768;17.206;2023-04-03T09:47:30;5.35;;;4.00;;
36351;SDS011;22382;44.768;17.206;2023-04-03T09:52:41;7.97;;;4.03;;
36351;SDS011;22382;44.768;17.206;2023-04-03T09:55:22;7.20;;;4.82;;
36351;SDS011;22382;44.768;17.206;2023-04-03T09:57:58;8.43;;;4.63;;
36351;SDS011;22382;44.768;17.206;2023-04-03T10:02:59;7.30;;;4.55;;
36351;SDS011;22382;44.768;17.206;2023-04-03T10:05:29;6.25;;;4.50;;
36351;SDS011;22382;44.768;17.206;2023-04-03T10:10:43;8.57;;;4.35;;
36351;SDS011;22382;44.768;17.206;2023-04-03T10:13:16;6.72;;;4.38;;
36351;SDS011;22382;44.768;17.206;2023-04-03T10:15:51;6.68;;;4.50;;
36351;SDS011;22382;44.768;17.206;2023-04-03T10:21:02;6.63;;;4.72;;
36351;SDS011;22382;44.768;17.206;2023-04-03T10:26:57;6.70;;;4.70;;
36351;SDS011;22382;44.768;17.206;2023-04-03T10:32:22;6.40;;;4.43;;
36351;SDS011;22382;44.768;17.206;2023-04-03T10:35:20;7.32;;;4.28;;
36351;SDS011;22382;44.768;17.206;2023-04-03T10:41:09;6.22;;;4.22;;
36351;SDS011;22382;44.768;17.206;2023-04-03T10:44:02;5.78;;;4.47;;
36351;SDS011;22382;44.768;17.206;2023-04-03T10:46:47;7.28;;;5.10;;
36351;SDS011;22382;44.768;17.206;2023-04-03T10:52:30;7.18;;;4.65;;
36351;SDS011;22382;44.768;17.206;2023-04-03T10:57:53;5.82;;;4.47;;
36351;SDS011;22382;44.768;17.206;2023-04-03T11:00:25;6.85;;;4.40;;
36351;SDS011;22382;44.768;17.206;2023-04-03T11:06:11;8.27;;;5.00;;
36351;SDS011;22382;44.768;17.206;2023-04-03T11:11:31;5.45;;;3.60;;
36351;SDS011;22382;44.768;17.206;2023-04-03T11:16:39;6.68;;;4.10;;
36351;SDS011;22382;44.768;17.206;2023-04-03T11:22:20;5.35;;;4.03;;
36351;SDS011;22382;44.768;17.206;2023-04-03T11:28:04;7.60;;;4.82;;
36351;SDS011;22382;44.768;17.206;2023-04-03T11:36:07;6.38;;;4.28;;
36351;SDS011;22382;44.768;17.206;2023-04-03T11:38:56;5.93;;;4.40;;
36351;SDS011;22382;44.768;17.206;2023-04-03T11:41:29;7.70;;;5.13;;
36351;SDS011;22382;44.768;17.206;2023-04-03T12:08:50;9.68;;;6.38;;
36351;SDS011;22382;44.768;17.206;2023-04-03T12:11:23;8.77;;;5.85;;
36351;SDS011;22382;44.768;17.206;2023-04-03T12:16:27;8.50;;;5.22;;
36351;SDS011;22382;44.768;17.206;2023-04-03T12:19:27;8.70;;;5.00;;
36351;SDS011;22382;44.768;17.206;2023-04-03T12:22:08;6.85;;;5.35;;
36351;SDS011;22382;44.768;17.206;2023-04-03T12:24:38;9.00;;;6.05;;
36351;SDS011;22382;44.768;17.206;2023-04-03T12:29:48;8.85;;;6.15;;
36351;SDS011;22382;44.768;17.206;2023-04-03T12:32:32;8.15;;;6.07;;
36351;SDS011;22382;44.768;17.206;2023-04-03T12:40:53;10.73;;;5.95;;
36351;SDS011;22382;44.768;17.206;2023-04-03T12:46:23;10.02;;;5.75;;
36351;SDS011;22382;44.768;17.206;2023-04-03T12:48:54;7.78;;;5.63;;
36351;SDS011;22382;44.768;17.206;2023-04-03T12:51:39;8.38;;;6.22;;
36351;SDS011;22382;44.768;17.206;2023-04-03T12:54:15;11.75;;;6.75;;
36351;SDS011;22382;44.768;17.206;2023-04-03T12:56:43;9.65;;;6.85;;
36351;SDS011;22382;44.768;17.206;2023-04-03T12:59:20;9.65;;;7.05;;
36351;SDS011;22382;44.768;17.206;2023-04-03T13:01:56;9.60;;;7.47;;
36351;SDS011;22382;44.768;17.206;2023-04-03T13:04:26;12.15;;;8.88;;
36351;SDS011;22382;44.768;17.206;2023-04-03T13:07:21;14.43;;;9.82;;
36351;SDS011;22382;44.768;17.206;2023-04-03T13:09:55;13.38;;;9.10;;
36351;SDS011;22382;44.768;17.206;2023-04-03T13:12:27;14.93;;;9.27;;
36351;SDS011;22382;44.768;17.206;2023-04-03T13:14:59;14.57;;;9.77;;
36351;SDS011;22382;44.768;17.206;2023-04-03T13:17:38;12.23;;;8.55;;
36351;SDS011;22382;44.768;17.206;2023-04-03T13:20:17;11.65;;;7.88;;
36351;SDS011;22382;44.768;17.206;2023-04-03T13:22:52;9.13;;;6.68;;
36351;SDS011;22382;44.768;17.206;2023-04-03T13:25:20;8.48;;;5.85;;
36351;SDS011;22382;44.768;17.206;2023-04-03T13:27:49;9.18;;;6.35;;
36351;SDS011;22382;44.768;17.206;2023-04-03T13:30:30;9.00;;;6.22;;
36351;SDS011;22382;44.768;17.206;2023-04-03T13:33:00;7.82;;;6.05;;
36351;SDS011;22382;44.768;17.206;2023-04-03T13:38:07;8.90;;;6.45;;
36351;SDS011;22382;44.768;17.206;2023-04-03T13:40:59;8.27;;;5.75;;
36351;SDS011;22382;44.768;17.206;2023-04-03T13:43:31;11.65;;;6.63;;
36351;SDS011;22382;44.768;17.206;2023-04-03T13:48:41;12.93;;;6.63;;
36351;SDS011;22382;44.768;17.206;2023-04-03T13:53:42;8.82;;;7.22;;
36351;SDS011;22382;44.768;17.206;2023-04-03T13:56:26;10.00;;;6.35;;
36351;SDS011;22382;44.768;17.206;2023-04-03T14:01:49;8.27;;;6.30;;
36351;SDS011;22382;44.768;17.206;2023-04-03T14:04:24;9.63;;;7.10;;
36351;SDS011;22382;44.768;17.206;2023-04-03T14:06:54;11.65;;;7.63;;
36351;SDS011;22382;44.768;17.206;2023-04-03T14:09:23;10.82;;;6.88;;
36351;SDS011;22382;44.768;17.206;2023-04-03T14:11:52;12.18;;;7.82;;
36351;SDS011;22382;44.768;17.206;2023-04-03T14:14:27;11.30;;;7.47;;
36351;SDS011;22382;44.768;17.206;2023-04-03T14:16:59;10.43;;;7.57;;
36351;SDS011;22382;44.768;17.206;2023-04-03T14:19:29;10.95;;;7.45;;
36351;SDS011;22382;44.768;17.206;2023-04-03T14:22:03;12.57;;;7.97;;
36351;SDS011;22382;44.768;17.206;2023-04-03T14:24:42;14.45;;;8.00;;
36351;SDS011;22382;44.768;17.206;2023-04-03T14:27:19;15.15;;;9.52;;
36351;SDS011;22382;44.768;17.206;2023-04-03T14:29:49;14.63;;;11.07;;
36351;SDS011;22382;44.768;17.206;2023-04-03T14:32:18;18.50;;;12.93;;
36351;SDS011;22382;44.768;17.206;2023-04-03T14:34:47;16.08;;;13.32;;
36351;SDS011;22382;44.768;17.206;2023-04-03T14:37:19;19.55;;;12.88;;
36351;SDS011;22382;44.768;17.206;2023-04-03T14:39:52;16.15;;;11.15;;
36351;SDS011;22382;44.768;17.206;2023-04-03T14:42:22;48.95;;;29.13;;
36351;SDS011;22382;44.768;17.206;2023-04-03T14:44:51;21.48;;;14.23;;
36351;SDS011;22382;44.768;17.206;2023-04-03T14:47:20;16.63;;;12.25;;
36351;SDS011;22382;44.768;17.206;2023-04-03T14:49:58;15.60;;;11.68;;
36351;SDS011;22382;44.768;17.206;2023-04-03T14:52:28;16.88;;;11.50;;
36351;SDS011;22382;44.768;17.206;2023-04-03T14:54:57;15.63;;;10.90;;
36351;SDS011;22382;44.768;17.206;2023-04-03T14:57:25;13.60;;;10.18;;
36351;SDS011;22382;44.768;17.206;2023-04-03T14:59:54;14.88;;;10.13;;
36351;SDS011;22382;44.768;17.206;2023-04-03T15:02:29;12.60;;;9.07;;
36351;SDS011;22382;44.768;17.206;2023-04-03T15:04:59;9.77;;;7.72;;
36351;SDS011;22382;44.768;17.206;2023-04-03T15:07:30;12.02;;;7.85;;
36351;SDS011;22382;44.768;17.206;2023-04-03T15:10:21;10.43;;;7.50;;
36351;SDS011;22382;44.768;17.206;2023-04-03T15:12:50;14.18;;;9.55;;
36351;SDS011;22382;44.768;17.206;2023-04-03T15:15:19;11.00;;;8.13;;
36351;SDS011;22382;44.768;17.206;2023-04-03T15:17:49;19.75;;;8.30;;
36351;SDS011;22382;44.768;17.206;2023-04-03T15:20:21;16.45;;;10.00;;
36351;SDS011;22382;44.768;17.206;2023-04-03T15:22:50;15.70;;;10.60;;
36351;SDS011;22382;44.768;17.206;2023-04-03T15:25:17;13.73;;;9.00;;
36351;SDS011;22382;44.768;17.206;2023-04-03T15:27:45;12.77;;;7.82;;
36351;SDS011;22382;44.768;17.206;2023-04-03T15:30:16;11.00;;;8.20;;
36351;SDS011;22382;44.768;17.206;2023-04-03T15:32:45;10.45;;;7.85;;
36351;SDS011;22382;44.768;17.206;2023-04-03T15:35:13;11.43;;;7.30;;
36351;SDS011;22382;44.768;17.206;2023-04-03T15:37:40;10.00;;;6.78;;
36351;SDS011;22382;44.768;17.206;2023-04-03T15:40:08;10.35;;;7.18;;
36351;SDS011;22382;44.768;17.206;2023-04-03T15:42:36;9.05;;;6.47;;
36351;SDS011;22382;44.768;17.206;2023-04-03T15:45:04;9.98;;;7.05;;
36351;SDS011;22382;44.768;17.206;2023-04-03T15:47:32;9.32;;;6.35;;
36351;SDS011;22382;44.768;17.206;2023-04-03T15:49:59;8.70;;;6.15;;
36351;SDS011;22382;44.768;17.206;2023-04-03T15:52:27;9.90;;;6.82;;
36351;SDS011;22382;44.768;17.206;2023-04-03T15:54:54;9.88;;;6.68;;
36351;SDS011;22382;44.768;17.206;2023-04-03T15:57:21;11.82;;;8.63;;
36351;SDS011;22382;44.768;17.206;2023-04-03T15:59:52;13.52;;;9.20;;
36351;SDS011;22382;44.768;17.206;2023-04-03T16:02:19;11.18;;;8.70;;
36351;SDS011;22382;44.768;17.206;2023-04-03T16:04:47;15.13;;;9.02;;
36351;SDS011;22382;44.768;17.206;2023-04-03T16:07:15;15.27;;;9.35;;
36351;SDS011;22382;44.768;17.206;2023-04-03T16:09:42;13.32;;;8.90;;
36351;SDS011;22382;44.768;17.206;2023-04-03T16:12:10;11.52;;;8.38;;
36351;SDS011;22382;44.768;17.206;2023-04-03T16:14:39;12.20;;;7.97;;
36351;SDS011;22382;44.768;17.206;2023-04-03T16:17:06;10.80;;;7.63;;
36351;SDS011;22382;44.768;17.206;2023-04-03T16:19:33;9.25;;;6.95;;
36351;SDS011;22382;44.768;17.206;2023-04-03T16:22:01;11.20;;;7.63;;
36351;SDS011;22382;44.768;17.206;2023-04-03T16:24:28;11.18;;;7.93;;
36351;SDS011;22382;44.768;17.206;2023-04-03T16:26:56;13.10;;;9.77;;
36351;SDS011;22382;44.768;17.206;2023-04-03T16:29:23;17.63;;;11.35;;
36351;SDS011;22382;44.768;17.206;2023-04-03T16:31:50;18.80;;;12.95;;
36351;SDS011;22382;44.768;17.206;2023-04-03T16:34:18;22.92;;;14.45;;
36351;SDS011;22382;44.768;17.206;2023-04-03T16:36:45;22.92;;;14.63;;
36351;SDS011;22382;44.768;17.206;2023-04-03T16:39:13;27.60;;;16.30;;
36351;SDS011;22382;44.768;17.206;2023-04-03T16:41:40;29.38;;;19.08;;
36351;SDS011;22382;44.768;17.206;2023-04-03T16:44:07;27.95;;;16.70;;